CheckWX is a tool to help pilots better visualize weather data.  It is not intended as a substitute for an official pre-flight weather briefing.

21:20:32 UTC

C65 METAR
Plymouth Municipal Airport
Plymouth, Indiana, USA
Current

26 mins ago

KC65 182055Z AUTO 33008KT 10SM SCT035 M02/M09 A3035 RMK A01
Observed
Feb-18 @ 20:55 UTC
Wind
  • 330° at 8 KTS
Visibility
10 SM
Flight Rules
VFR
Cloud Levels
  • Scattered at 3,500' AGL
Temperature
-2°C / 28°F
Dewpoint
-9°C / 16°F
Humidity
59%
Altimeter
30.35" Hg
Pressure
1027.82 hPa
Previous

46 mins ago

KC65 182035Z AUTO 34009KT 300V360 10SM BKN032 BKN038 M02/M05 A3035 RMK A01
Observed
Feb-18 @ 20:35 UTC
Wind
  • 340° at 9 KTS
Visibility
10 SM
Flight Rules
VFR
Cloud Levels
  • Broken at 3,200' AGL
  • Broken at 3,800' AGL
Temperature
-2°C / 28°F
Dewpoint
-5°C / 23°F
Humidity
80%
Altimeter
30.35" Hg
Pressure
1027.82 hPa
Previous

1 hour ago

KC65 182015Z AUTO 32009G15KT 10SM BKN030 M03/M05 A3034 RMK A01
Observed
Feb-18 @ 20:15 UTC
Wind
  • 320° at 9 KTS
  • Gusting to 15 KTS
Visibility
10 SM
Flight Rules
MVFR
Cloud Levels
  • Broken at 3,000' AGL
Temperature
-3°C / 27°F
Dewpoint
-5°C / 23°F
Humidity
86%
Altimeter
30.34" Hg
Pressure
1027.42 hPa